sensor_id;sensor_type;location;lat;lon;timestamp;P1;durP1;ratioP1;P2;durP2;ratioP2
40827;SDS011;26549;50.918;5.338;2022-12-07T00:01:19;13.25;;;7.85;;
40827;SDS011;26549;50.918;5.338;2022-12-07T00:03:47;10.52;;;7.50;;
40827;SDS011;26549;50.918;5.338;2022-12-07T00:06:15;12.75;;;8.80;;
40827;SDS011;26549;50.918;5.338;2022-12-07T00:08:42;12.73;;;9.05;;
40827;SDS011;26549;50.918;5.338;2022-12-07T00:11:13;11.68;;;7.38;;
40827;SDS011;26549;50.918;5.338;2022-12-07T00:13:41;16.88;;;9.18;;
40827;SDS011;26549;50.918;5.338;2022-12-07T00:16:09;9.75;;;7.57;;
40827;SDS011;26549;50.918;5.338;2022-12-07T00:18:40;13.57;;;8.27;;
40827;SDS011;26549;50.918;5.338;2022-12-07T00:21:11;15.02;;;8.57;;
40827;SDS011;26549;50.918;5.338;2022-12-07T00:23:40;10.88;;;7.38;;
40827;SDS011;26549;50.918;5.338;2022-12-07T00:26:10;12.52;;;8.15;;
40827;SDS011;26549;50.918;5.338;2022-12-07T00:28:44;10.43;;;7.97;;
40827;SDS011;26549;50.918;5.338;2022-12-07T00:31:14;12.32;;;7.78;;
40827;SDS011;26549;50.918;5.338;2022-12-07T00:33:42;11.23;;;8.52;;
40827;SDS011;26549;50.918;5.338;2022-12-07T00:36:10;13.10;;;8.40;;
40827;SDS011;26549;50.918;5.338;2022-12-07T00:38:38;13.15;;;8.02;;
40827;SDS011;26549;50.918;5.338;2022-12-07T00:41:05;12.82;;;8.23;;
40827;SDS011;26549;50.918;5.338;2022-12-07T00:43:35;18.90;;;8.30;;
40827;SDS011;26549;50.918;5.338;2022-12-07T00:46:01;13.98;;;7.90;;
40827;SDS011;26549;50.918;5.338;2022-12-07T00:48:27;17.95;;;9.60;;
40827;SDS011;26549;50.918;5.338;2022-12-07T00:50:53;18.23;;;8.40;;
40827;SDS011;26549;50.918;5.338;2022-12-07T00:53:20;14.80;;;8.73;;
40827;SDS011;26549;50.918;5.338;2022-12-07T00:55:46;12.20;;;8.13;;
40827;SDS011;26549;50.918;5.338;2022-12-07T00:58:12;12.68;;;8.82;;
40827;SDS011;26549;50.918;5.338;2022-12-07T01:00:38;13.18;;;8.25;;
40827;SDS011;26549;50.918;5.338;2022-12-07T01:03:05;11.77;;;7.53;;
40827;SDS011;26549;50.918;5.338;2022-12-07T01:05:32;12.18;;;8.38;;
40827;SDS011;26549;50.918;5.338;2022-12-07T01:07:58;10.43;;;7.05;;
40827;SDS011;26549;50.918;5.338;2022-12-07T01:10:25;11.35;;;8.32;;
40827;SDS011;26549;50.918;5.338;2022-12-07T01:12:51;10.88;;;8.18;;
40827;SDS011;26549;50.918;5.338;2022-12-07T01:15:17;13.35;;;7.93;;
40827;SDS011;26549;50.918;5.338;2022-12-07T01:17:44;13.18;;;7.28;;
40827;SDS011;26549;50.918;5.338;2022-12-07T01:20:10;11.48;;;7.55;;
40827;SDS011;26549;50.918;5.338;2022-12-07T01:22:37;13.35;;;7.85;;
40827;SDS011;26549;50.918;5.338;2022-12-07T01:25:05;8.63;;;6.95;;
40827;SDS011;26549;50.918;5.338;2022-12-07T01:27:32;9.70;;;7.60;;
40827;SDS011;26549;50.918;5.338;2022-12-07T01:29:59;12.32;;;7.70;;
40827;SDS011;26549;50.918;5.338;2022-12-07T01:32:27;17.45;;;10.60;;
40827;SDS011;26549;50.918;5.338;2022-12-07T01:34:54;10.88;;;7.95;;
40827;SDS011;26549;50.918;5.338;2022-12-07T01:37:20;10.80;;;7.70;;
40827;SDS011;26549;50.918;5.338;2022-12-07T01:39:49;11.02;;;6.88;;
40827;SDS011;26549;50.918;5.338;2022-12-07T01:42:16;14.32;;;7.57;;
40827;SDS011;26549;50.918;5.338;2022-12-07T01:47:42;11.82;;;8.57;;
40827;SDS011;26549;50.918;5.338;2022-12-07T01:50:12;10.20;;;7.88;;
40827;SDS011;26549;50.918;5.338;2022-12-07T01:52:38;20.88;;;7.50;;
40827;SDS011;26549;50.918;5.338;2022-12-07T01:55:10;12.55;;;7.93;;
40827;SDS011;26549;50.918;5.338;2022-12-07T01:57:40;10.25;;;7.45;;
40827;SDS011;26549;50.918;5.338;2022-12-07T02:00:09;11.93;;;8.38;;
40827;SDS011;26549;50.918;5.338;2022-12-07T02:05:44;12.48;;;7.63;;
40827;SDS011;26549;50.918;5.338;2022-12-07T02:08:11;13.85;;;8.95;;
40827;SDS011;26549;50.918;5.338;2022-12-07T02:10:38;12.30;;;8.20;;
40827;SDS011;26549;50.918;5.338;2022-12-07T02:13:06;10.13;;;7.22;;
40827;SDS011;26549;50.918;5.338;2022-12-07T02:15:59;12.88;;;7.55;;
40827;SDS011;26549;50.918;5.338;2022-12-07T02:18:33;12.52;;;8.13;;
40827;SDS011;26549;50.918;5.338;2022-12-07T02:34:33;13.00;;;8.05;;
40827;SDS011;26549;50.918;5.338;2022-12-07T02:37:27;10.07;;;6.93;;
40827;SDS011;26549;50.918;5.338;2022-12-07T02:39:59;14.23;;;7.68;;
40827;SDS011;26549;50.918;5.338;2022-12-07T02:42:31;10.30;;;7.22;;
40827;SDS011;26549;50.918;5.338;2022-12-07T02:45:03;13.30;;;8.50;;
40827;SDS011;26549;50.918;5.338;2022-12-07T02:47:32;15.20;;;8.45;;
40827;SDS011;26549;50.918;5.338;2022-12-07T02:50:02;11.02;;;8.88;;
40827;SDS011;26549;50.918;5.338;2022-12-07T02:52:31;13.88;;;8.20;;
40827;SDS011;26549;50.918;5.338;2022-12-07T02:54:57;11.50;;;8.25;;
40827;SDS011;26549;50.918;5.338;2022-12-07T02:57:38;11.70;;;7.93;;
40827;SDS011;26549;50.918;5.338;2022-12-07T03:00:15;11.60;;;7.55;;
40827;SDS011;26549;50.918;5.338;2022-12-07T03:11:13;18.65;;;8.38;;
40827;SDS011;26549;50.918;5.338;2022-12-07T03:16:20;11.32;;;8.18;;
40827;SDS011;26549;50.918;5.338;2022-12-07T03:19:16;16.65;;;9.50;;
40827;SDS011;26549;50.918;5.338;2022-12-07T03:22:18;13.60;;;8.38;;
40827;SDS011;26549;50.918;5.338;2022-12-07T03:24:41;15.18;;;8.95;;
40827;SDS011;26549;50.918;5.338;2022-12-07T03:27:17;15.77;;;8.80;;
40827;SDS011;26549;50.918;5.338;2022-12-07T03:29:48;11.40;;;8.30;;
40827;SDS011;26549;50.918;5.338;2022-12-07T03:34:56;15.52;;;9.70;;
40827;SDS011;26549;50.918;5.338;2022-12-07T03:37:34;14.15;;;8.73;;
40827;SDS011;26549;50.918;5.338;2022-12-07T03:40:07;14.27;;;9.93;;
40827;SDS011;26549;50.918;5.338;2022-12-07T03:42:39;11.98;;;8.88;;
40827;SDS011;26549;50.918;5.338;2022-12-07T03:45:06;13.70;;;8.40;;
40827;SDS011;26549;50.918;5.338;2022-12-07T03:47:34;14.15;;;10.57;;
40827;SDS011;26549;50.918;5.338;2022-12-07T03:57:48;11.93;;;8.45;;
40827;SDS011;26549;50.918;5.338;2022-12-07T04:00:18;16.15;;;9.95;;
40827;SDS011;26549;50.918;5.338;2022-12-07T04:02:44;12.65;;;9.13;;
40827;SDS011;26549;50.918;5.338;2022-12-07T04:05:10;13.27;;;9.20;;
40827;SDS011;26549;50.918;5.338;2022-12-07T04:07:37;13.98;;;10.27;;
40827;SDS011;26549;50.918;5.338;2022-12-07T04:10:03;16.00;;;8.55;;
40827;SDS011;26549;50.918;5.338;2022-12-07T04:12:30;13.57;;;9.60;;
40827;SDS011;26549;50.918;5.338;2022-12-07T04:14:56;14.02;;;10.00;;
40827;SDS011;26549;50.918;5.338;2022-12-07T04:17:22;14.20;;;10.07;;
40827;SDS011;26549;50.918;5.338;2022-12-07T04:19:48;12.93;;;9.18;;
40827;SDS011;26549;50.918;5.338;2022-12-07T04:22:14;18.35;;;9.68;;
40827;SDS011;26549;50.918;5.338;2022-12-07T04:24:40;16.45;;;8.98;;
40827;SDS011;26549;50.918;5.338;2022-12-07T04:27:06;12.48;;;9.00;;
40827;SDS011;26549;50.918;5.338;2022-12-07T04:29:33;12.73;;;9.10;;
40827;SDS011;26549;50.918;5.338;2022-12-07T04:31:59;11.65;;;8.65;;
40827;SDS011;26549;50.918;5.338;2022-12-07T04:34:25;14.82;;;8.77;;
40827;SDS011;26549;50.918;5.338;2022-12-07T04:36:51;11.05;;;8.70;;
40827;SDS011;26549;50.918;5.338;2022-12-07T04:39:24;13.05;;;8.82;;
40827;SDS011;26549;50.918;5.338;2022-12-07T04:42:15;11.93;;;9.60;;
40827;SDS011;26549;50.918;5.338;2022-12-07T04:44:41;12.80;;;8.82;;
40827;SDS011;26549;50.918;5.338;2022-12-07T04:47:08;10.57;;;8.93;;
40827;SDS011;26549;50.918;5.338;2022-12-07T04:49:34;11.93;;;8.50;;
40827;SDS011;26549;50.918;5.338;2022-12-07T04:52:00;14.57;;;10.20;;
40827;SDS011;26549;50.918;5.338;2022-12-07T04:54:26;17.63;;;9.77;;
40827;SDS011;26549;50.918;5.338;2022-12-07T04:56:52;11.02;;;8.90;;
40827;SDS011;26549;50.918;5.338;2022-12-07T04:59:18;14.10;;;9.43;;
40827;SDS011;26549;50.918;5.338;2022-12-07T05:01:44;14.23;;;9.30;;
40827;SDS011;26549;50.918;5.338;2022-12-07T05:04:10;15.48;;;9.45;;
40827;SDS011;26549;50.918;5.338;2022-12-07T05:06:37;17.00;;;10.80;;
40827;SDS011;26549;50.918;5.338;2022-12-07T05:09:03;15.05;;;9.73;;
40827;SDS011;26549;50.918;5.338;2022-12-07T05:11:30;14.75;;;10.20;;
40827;SDS011;26549;50.918;5.338;2022-12-07T05:14:12;15.52;;;10.55;;
40827;SDS011;26549;50.918;5.338;2022-12-07T05:16:44;14.98;;;10.43;;
40827;SDS011;26549;50.918;5.338;2022-12-07T05:19:11;17.80;;;9.85;;
40827;SDS011;26549;50.918;5.338;2022-12-07T05:21:38;15.43;;;9.05;;
40827;SDS011;26549;50.918;5.338;2022-12-07T05:24:04;13.73;;;8.98;;
40827;SDS011;26549;50.918;5.338;2022-12-07T05:26:31;14.05;;;9.70;;
40827;SDS011;26549;50.918;5.338;2022-12-07T05:28:57;13.88;;;8.70;;
40827;SDS011;26549;50.918;5.338;2022-12-07T05:31:24;13.35;;;8.75;;
40827;SDS011;26549;50.918;5.338;2022-12-07T05:33:52;15.68;;;9.63;;
40827;SDS011;26549;50.918;5.338;2022-12-07T05:36:19;16.48;;;9.18;;
40827;SDS011;26549;50.918;5.338;2022-12-07T05:38:45;16.02;;;8.85;;
40827;SDS011;26549;50.918;5.338;2022-12-07T05:41:12;14.18;;;9.85;;
40827;SDS011;26549;50.918;5.338;2022-12-07T05:43:58;13.05;;;8.25;;
40827;SDS011;26549;50.918;5.338;2022-12-07T05:46:25;14.35;;;8.80;;
40827;SDS011;26549;50.918;5.338;2022-12-07T05:48:51;24.92;;;9.68;;
40827;SDS011;26549;50.918;5.338;2022-12-07T05:51:17;11.32;;;8.05;;
40827;SDS011;26549;50.918;5.338;2022-12-07T05:53:45;12.90;;;8.65;;
40827;SDS011;26549;50.918;5.338;2022-12-07T05:56:12;15.00;;;9.00;;
40827;SDS011;26549;50.918;5.338;2022-12-07T05:58:38;13.70;;;8.77;;
40827;SDS011;26549;50.918;5.338;2022-12-07T06:01:22;13.40;;;8.63;;
40827;SDS011;26549;50.918;5.338;2022-12-07T06:03:49;12.77;;;9.23;;
40827;SDS011;26549;50.918;5.338;2022-12-07T06:06:15;16.70;;;9.65;;
40827;SDS011;26549;50.918;5.338;2022-12-07T06:08:41;16.42;;;10.25;;
40827;SDS011;26549;50.918;5.338;2022-12-07T06:11:07;15.35;;;8.98;;
40827;SDS011;26549;50.918;5.338;2022-12-07T06:13:51;18.40;;;9.40;;
40827;SDS011;26549;50.918;5.338;2022-12-07T06:16:17;12.75;;;9.25;;
40827;SDS011;26549;50.918;5.338;2022-12-07T06:18:43;19.33;;;10.90;;
40827;SDS011;26549;50.918;5.338;2022-12-07T06:21:09;14.35;;;10.35;;
40827;SDS011;26549;50.918;5.338;2022-12-07T06:23:35;13.00;;;8.85;;
40827;SDS011;26549;50.918;5.338;2022-12-07T06:26:01;14.77;;;10.00;;
40827;SDS011;26549;50.918;5.338;2022-12-07T06:28:27;13.20;;;9.00;;
40827;SDS011;26549;50.918;5.338;2022-12-07T06:30:59;14.38;;;9.45;;
40827;SDS011;26549;50.918;5.338;2022-12-07T06:33:26;13.23;;;9.65;;
40827;SDS011;26549;50.918;5.338;2022-12-07T06:35:53;16.17;;;10.20;;
40827;SDS011;26549;50.918;5.338;2022-12-07T06:38:20;15.88;;;9.65;;
40827;SDS011;26549;50.918;5.338;2022-12-07T06:40:46;14.57;;;9.35;;
40827;SDS011;26549;50.918;5.338;2022-12-07T06:43:13;18.20;;;9.93;;
40827;SDS011;26549;50.918;5.338;2022-12-07T06:45:38;12.48;;;9.32;;
40827;SDS011;26549;50.918;5.338;2022-12-07T06:48:05;18.42;;;10.32;;
40827;SDS011;26549;50.918;5.338;2022-12-07T06:50:31;13.05;;;8.73;;
40827;SDS011;26549;50.918;5.338;2022-12-07T06:52:57;14.23;;;10.20;;
40827;SDS011;26549;50.918;5.338;2022-12-07T06:55:24;14.75;;;9.52;;
40827;SDS011;26549;50.918;5.338;2022-12-07T06:57:50;16.30;;;9.98;;
40827;SDS011;26549;50.918;5.338;2022-12-07T07:00:16;14.70;;;9.38;;
40827;SDS011;26549;50.918;5.338;2022-12-07T07:02:42;19.35;;;9.60;;
40827;SDS011;26549;50.918;5.338;2022-12-07T07:05:11;12.98;;;9.10;;
40827;SDS011;26549;50.918;5.338;2022-12-07T07:07:37;14.43;;;9.73;;
40827;SDS011;26549;50.918;5.338;2022-12-07T07:10:03;11.95;;;9.32;;
40827;SDS011;26549;50.918;5.338;2022-12-07T07:12:30;13.98;;;9.32;;
40827;SDS011;26549;50.918;5.338;2022-12-07T07:14:56;13.50;;;9.45;;
40827;SDS011;26549;50.918;5.338;2022-12-07T07:17:22;11.18;;;8.55;;
40827;SDS011;26549;50.918;5.338;2022-12-07T07:19:48;14.80;;;9.45;;
40827;SDS011;26549;50.918;5.338;2022-12-07T07:22:14;15.88;;;9.52;;
40827;SDS011;26549;50.918;5.338;2022-12-07T07:24:40;13.90;;;9.55;;
40827;SDS011;26549;50.918;5.338;2022-12-07T07:27:06;15.60;;;10.02;;
40827;SDS011;26549;50.918;5.338;2022-12-07T07:29:32;13.52;;;10.93;;
40827;SDS011;26549;50.918;5.338;2022-12-07T07:31:57;15.45;;;9.85;;
40827;SDS011;26549;50.918;5.338;2022-12-07T07:34:25;13.13;;;9.55;;
40827;SDS011;26549;50.918;5.338;2022-12-07T07:36:51;21.52;;;10.23;;
40827;SDS011;26549;50.918;5.338;2022-12-07T07:39:16;13.38;;;10.13;;
40827;SDS011;26549;50.918;5.338;2022-12-07T07:41:42;15.25;;;10.40;;
40827;SDS011;26549;50.918;5.338;2022-12-07T07:44:08;18.98;;;11.48;;
40827;SDS011;26549;50.918;5.338;2022-12-07T07:46:34;17.27;;;9.98;;
40827;SDS011;26549;50.918;5.338;2022-12-07T07:49:00;16.63;;;9.80;;
40827;SDS011;26549;50.918;5.338;2022-12-07T07:51:26;16.75;;;11.02;;
40827;SDS011;26549;50.918;5.338;2022-12-07T07:53:52;19.10;;;10.88;;
40827;SDS011;26549;50.918;5.338;2022-12-07T07:56:17;18.77;;;11.13;;
40827;SDS011;26549;50.918;5.338;2022-12-07T07:58:43;19.88;;;10.90;;
40827;SDS011;26549;50.918;5.338;2022-12-07T08:01:09;15.20;;;10.77;;
40827;SDS011;26549;50.918;5.338;2022-12-07T08:03:35;15.27;;;10.57;;
40827;SDS011;26549;50.918;5.338;2022-12-07T08:06:04;16.55;;;9.73;;
40827;SDS011;26549;50.918;5.338;2022-12-07T08:08:31;15.50;;;9.20;;
40827;SDS011;26549;50.918;5.338;2022-12-07T08:10:57;20.02;;;9.93;;
40827;SDS011;26549;50.918;5.338;2022-12-07T08:13:26;15.10;;;9.68;;
40827;SDS011;26549;50.918;5.338;2022-12-07T08:15:53;15.35;;;9.75;;
40827;SDS011;26549;50.918;5.338;2022-12-07T08:18:18;15.05;;;10.52;;
40827;SDS011;26549;50.918;5.338;2022-12-07T08:20:44;16.13;;;10.57;;
40827;SDS011;26549;50.918;5.338;2022-12-07T08:23:10;14.10;;;10.07;;
40827;SDS011;26549;50.918;5.338;2022-12-07T08:25:36;15.45;;;9.30;;
40827;SDS011;26549;50.918;5.338;2022-12-07T08:28:02;14.82;;;10.50;;
40827;SDS011;26549;50.918;5.338;2022-12-07T08:30:28;14.30;;;9.82;;
40827;SDS011;26549;50.918;5.338;2022-12-07T08:32:55;15.73;;;9.10;;
40827;SDS011;26549;50.918;5.338;2022-12-07T08:35:21;14.15;;;9.02;;
40827;SDS011;26549;50.918;5.338;2022-12-07T08:37:46;15.30;;;9.70;;
40827;SDS011;26549;50.918;5.338;2022-12-07T08:40:12;12.35;;;9.32;;
40827;SDS011;26549;50.918;5.338;2022-12-07T08:42:41;16.85;;;9.68;;
40827;SDS011;26549;50.918;5.338;2022-12-07T08:45:08;15.63;;;10.15;;
40827;SDS011;26549;50.918;5.338;2022-12-07T08:48:30;13.40;;;9.82;;
40827;SDS011;26549;50.918;5.338;2022-12-07T08:50:57;17.60;;;9.70;;
40827;SDS011;26549;50.918;5.338;2022-12-07T08:53:23;12.00;;;8.57;;
40827;SDS011;26549;50.918;5.338;2022-12-07T08:55:50;14.73;;;9.70;;
40827;SDS011;26549;50.918;5.338;2022-12-07T08:58:20;14.38;;;9.60;;
40827;SDS011;26549;50.918;5.338;2022-12-07T09:00:46;14.35;;;9.90;;
40827;SDS011;26549;50.918;5.338;2022-12-07T09:03:12;14.73;;;9.90;;
40827;SDS011;26549;50.918;5.338;2022-12-07T09:05:40;12.07;;;8.00;;
40827;SDS011;26549;50.918;5.338;2022-12-07T09:08:10;12.40;;;8.88;;
40827;SDS011;26549;50.918;5.338;2022-12-07T09:10:37;12.73;;;7.93;;
40827;SDS011;26549;50.918;5.338;2022-12-07T09:13:03;15.57;;;8.38;;
40827;SDS011;26549;50.918;5.338;2022-12-07T09:15:30;13.85;;;9.77;;
40827;SDS011;26549;50.918;5.338;2022-12-07T09:17:57;12.77;;;8.18;;
40827;SDS011;26549;50.918;5.338;2022-12-07T09:20:23;16.80;;;9.65;;
40827;SDS011;26549;50.918;5.338;2022-12-07T09:22:49;14.80;;;8.07;;
40827;SDS011;26549;50.918;5.338;2022-12-07T09:25:15;12.63;;;7.50;;
40827;SDS011;26549;50.918;5.338;2022-12-07T09:27:41;11.52;;;8.40;;
40827;SDS011;26549;50.918;5.338;2022-12-07T09:30:07;12.13;;;6.55;;
40827;SDS011;26549;50.918;5.338;2022-12-07T09:32:36;11.00;;;6.70;;
40827;SDS011;26549;50.918;5.338;2022-12-07T09:35:02;12.52;;;7.20;;
40827;SDS011;26549;50.918;5.338;2022-12-07T09:37:29;10.98;;;7.03;;
40827;SDS011;26549;50.918;5.338;2022-12-07T09:39:56;10.75;;;6.25;;
40827;SDS011;26549;50.918;5.338;2022-12-07T09:42:30;9.20;;;6.45;;
40827;SDS011;26549;50.918;5.338;2022-12-07T09:45:05;7.47;;;5.78;;
40827;SDS011;26549;50.918;5.338;2022-12-07T09:47:37;10.20;;;6.30;;
40827;SDS011;26549;50.918;5.338;2022-12-07T09:50:05;10.18;;;6.38;;
40827;SDS011;26549;50.918;5.338;2022-12-07T09:52:37;7.40;;;5.72;;
40827;SDS011;26549;50.918;5.338;2022-12-07T09:55:07;14.23;;;6.40;;
40827;SDS011;26549;50.918;5.338;2022-12-07T09:57:39;8.15;;;5.25;;
40827;SDS011;26549;50.918;5.338;2022-12-07T10:00:16;8.45;;;5.47;;
40827;SDS011;26549;50.918;5.338;2022-12-07T10:02:50;8.75;;;5.43;;
40827;SDS011;26549;50.918;5.338;2022-12-07T10:05:27;7.68;;;5.05;;
40827;SDS011;26549;50.918;5.338;2022-12-07T10:07:54;11.90;;;5.45;;
40827;SDS011;26549;50.918;5.338;2022-12-07T10:10:23;7.45;;;5.20;;
40827;SDS011;26549;50.918;5.338;2022-12-07T10:13:02;10.77;;;4.50;;
40827;SDS011;26549;50.918;5.338;2022-12-07T10:15:43;7.43;;;4.53;;
40827;SDS011;26549;50.918;5.338;2022-12-07T10:18:19;8.30;;;4.55;;
40827;SDS011;26549;50.918;5.338;2022-12-07T10:23:42;8.88;;;4.88;;
40827;SDS011;26549;50.918;5.338;2022-12-07T10:29:12;9.30;;;5.13;;
40827;SDS011;26549;50.918;5.338;2022-12-07T10:31:42;7.55;;;4.40;;
40827;SDS011;26549;50.918;5.338;2022-12-07T10:34:29;8.13;;;5.00;;
40827;SDS011;26549;50.918;5.338;2022-12-07T10:39:56;13.25;;;5.30;;
40827;SDS011;26549;50.918;5.338;2022-12-07T10:42:23;8.32;;;5.35;;
40827;SDS011;26549;50.918;5.338;2022-12-07T10:45:13;9.40;;;4.60;;
40827;SDS011;26549;50.918;5.338;2022-12-07T10:50:38;6.32;;;3.88;;
40827;SDS011;26549;50.918;5.338;2022-12-07T10:53:16;7.65;;;4.45;;
40827;SDS011;26549;50.918;5.338;2022-12-07T10:56:23;6.50;;;4.72;;
40827;SDS011;26549;50.918;5.338;2022-12-07T11:01:30;6.65;;;3.95;;
40827;SDS011;26549;50.918;5.338;2022-12-07T11:06:59;8.43;;;4.68;;
40827;SDS011;26549;50.918;5.338;2022-12-07T11:10:21;5.35;;;3.90;;
40827;SDS011;26549;50.918;5.338;2022-12-07T11:28:58;9.35;;;3.95;;
40827;SDS011;26549;50.918;5.338;2022-12-07T11:34:28;7.97;;;4.82;;
40827;SDS011;26549;50.918;5.338;2022-12-07T11:39:35;9.32;;;3.97;;
40827;SDS011;26549;50.918;5.338;2022-12-07T11:42:06;9.98;;;4.43;;
40827;SDS011;26549;50.918;5.338;2022-12-07T11:44:42;7.40;;;3.90;;
40827;SDS011;26549;50.918;5.338;2022-12-07T11:55:26;10.75;;;3.10;;
40827;SDS011;26549;50.918;5.338;2022-12-07T12:01:13;6.38;;;2.42;;
40827;SDS011;26549;50.918;5.338;2022-12-07T12:06:34;4.43;;;2.08;;
40827;SDS011;26549;50.918;5.338;2022-12-07T12:12:00;7.15;;;2.95;;
40827;SDS011;26549;50.918;5.338;2022-12-07T12:25:35;6.03;;;2.78;;
40827;SDS011;26549;50.918;5.338;2022-12-07T12:28:04;11.35;;;2.38;;
40827;SDS011;26549;50.918;5.338;2022-12-07T12:30:35;7.07;;;3.42;;
40827;SDS011;26549;50.918;5.338;2022-12-07T12:33:03;7.82;;;3.70;;
40827;SDS011;26549;50.918;5.338;2022-12-07T12:35:31;4.82;;;2.60;;
40827;SDS011;26549;50.918;5.338;2022-12-07T12:43:41;11.60;;;3.30;;
40827;SDS011;26549;50.918;5.338;2022-12-07T12:51:43;8.57;;;3.60;;
40827;SDS011;26549;50.918;5.338;2022-12-07T12:54:23;5.70;;;2.35;;
40827;SDS011;26549;50.918;5.338;2022-12-07T12:56:51;6.40;;;2.30;;
40827;SDS011;26549;50.918;5.338;2022-12-07T13:05:01;2.45;;;1.65;;
40827;SDS011;26549;50.918;5.338;2022-12-07T13:10:21;4.50;;;2.05;;
40827;SDS011;26549;50.918;5.338;2022-12-07T13:15:43;7.35;;;1.50;;
40827;SDS011;26549;50.918;5.338;2022-12-07T13:20:54;4.20;;;1.98;;
40827;SDS011;26549;50.918;5.338;2022-12-07T13:23:27;9.43;;;2.38;;
40827;SDS011;26549;50.918;5.338;2022-12-07T13:28:35;7.88;;;2.63;;
40827;SDS011;26549;50.918;5.338;2022-12-07T13:34:00;7.47;;;1.98;;
40827;SDS011;26549;50.918;5.338;2022-12-07T13:36:38;6.57;;;1.73;;
40827;SDS011;26549;50.918;5.338;2022-12-07T13:42:06;3.65;;;1.38;;
40827;SDS011;26549;50.918;5.338;2022-12-07T13:44:40;10.90;;;1.63;;
40827;SDS011;26549;50.918;5.338;2022-12-07T13:47:30;4.15;;;1.50;;
40827;SDS011;26549;50.918;5.338;2022-12-07T13:50:28;2.55;;;1.15;;
40827;SDS011;26549;50.918;5.338;2022-12-07T13:52:59;4.43;;;1.45;;
40827;SDS011;26549;50.918;5.338;2022-12-07T13:55:26;3.17;;;1.00;;
40827;SDS011;26549;50.918;5.338;2022-12-07T13:57:53;3.13;;;1.23;;
40827;SDS011;26549;50.918;5.338;2022-12-07T14:00:21;2.97;;;0.93;;
40827;SDS011;26549;50.918;5.338;2022-12-07T14:03:04;4.45;;;1.40;;
40827;SDS011;26549;50.918;5.338;2022-12-07T14:05:45;4.00;;;1.15;;
40827;SDS011;26549;50.918;5.338;2022-12-07T14:10:38;6.28;;;1.88;;
40827;SDS011;26549;50.918;5.338;2022-12-07T14:15:53;2.80;;;1.15;;
40827;SDS011;26549;50.918;5.338;2022-12-07T14:18:30;3.72;;;1.42;;
40827;SDS011;26549;50.918;5.338;2022-12-07T14:23:37;6.05;;;2.85;;
40827;SDS011;26549;50.918;5.338;2022-12-07T14:26:06;5.88;;;1.75;;
40827;SDS011;26549;50.918;5.338;2022-12-07T14:28:36;6.80;;;2.10;;
40827;SDS011;26549;50.918;5.338;2022-12-07T14:31:03;6.30;;;2.30;;
40827;SDS011;26549;50.918;5.338;2022-12-07T14:33:33;4.10;;;2.40;;
40827;SDS011;26549;50.918;5.338;2022-12-07T14:35:59;9.48;;;2.53;;
40827;SDS011;26549;50.918;5.338;2022-12-07T14:38:25;5.68;;;2.30;;
40827;SDS011;26549;50.918;5.338;2022-12-07T14:40:51;6.05;;;3.40;;
40827;SDS011;26549;50.918;5.338;2022-12-07T14:43:18;7.50;;;2.88;;
40827;SDS011;26549;50.918;5.338;2022-12-07T14:45:45;5.53;;;2.38;;
40827;SDS011;26549;50.918;5.338;2022-12-07T14:48:12;4.07;;;2.60;;
40827;SDS011;26549;50.918;5.338;2022-12-07T14:50:42;6.05;;;2.28;;
40827;SDS011;26549;50.918;5.338;2022-12-07T14:53:14;6.65;;;2.78;;
40827;SDS011;26549;50.918;5.338;2022-12-07T14:55:41;4.80;;;2.45;;
40827;SDS011;26549;50.918;5.338;2022-12-07T14:58:12;3.28;;;2.95;;
40827;SDS011;26549;50.918;5.338;2022-12-07T15:00:40;3.83;;;2.28;;
40827;SDS011;26549;50.918;5.338;2022-12-07T15:03:06;6.18;;;2.40;;
40827;SDS011;26549;50.918;5.338;2022-12-07T15:05:33;5.13;;;2.40;;
40827;SDS011;26549;50.918;5.338;2022-12-07T15:07:59;4.85;;;2.10;;
40827;SDS011;26549;50.918;5.338;2022-12-07T15:10:26;8.07;;;2.42;;
40827;SDS011;26549;50.918;5.338;2022-12-07T15:12:57;4.45;;;2.85;;
40827;SDS011;26549;50.918;5.338;2022-12-07T15:15:44;6.03;;;2.60;;
40827;SDS011;26549;50.918;5.338;2022-12-07T15:18:11;5.63;;;2.35;;
40827;SDS011;26549;50.918;5.338;2022-12-07T15:20:37;6.40;;;3.10;;
40827;SDS011;26549;50.918;5.338;2022-12-07T15:23:04;6.43;;;2.95;;
40827;SDS011;26549;50.918;5.338;2022-12-07T15:25:30;4.13;;;2.75;;
40827;SDS011;26549;50.918;5.338;2022-12-07T15:27:55;8.50;;;2.50;;
40827;SDS011;26549;50.918;5.338;2022-12-07T15:30:21;6.75;;;3.17;;
40827;SDS011;26549;50.918;5.338;2022-12-07T15:32:50;4.95;;;2.83;;
40827;SDS011;26549;50.918;5.338;2022-12-07T15:35:17;9.80;;;3.05;;
40827;SDS011;26549;50.918;5.338;2022-12-07T15:37:43;4.82;;;3.30;;
40827;SDS011;26549;50.918;5.338;2022-12-07T15:40:09;6.25;;;3.17;;
40827;SDS011;26549;50.918;5.338;2022-12-07T15:42:35;5.63;;;2.83;;
40827;SDS011;26549;50.918;5.338;2022-12-07T15:45:02;8.50;;;3.08;;
40827;SDS011;26549;50.918;5.338;2022-12-07T15:47:36;5.75;;;3.10;;
40827;SDS011;26549;50.918;5.338;2022-12-07T15:50:04;6.05;;;3.28;;
40827;SDS011;26549;50.918;5.338;2022-12-07T15:52:31;4.63;;;2.90;;
40827;SDS011;26549;50.918;5.338;2022-12-07T15:54:58;6.55;;;3.25;;
40827;SDS011;26549;50.918;5.338;2022-12-07T15:57:28;6.25;;;3.80;;
40827;SDS011;26549;50.918;5.338;2022-12-07T15:59:54;8.05;;;3.42;;
40827;SDS011;26549;50.918;5.338;2022-12-07T16:02:20;4.57;;;2.50;;
40827;SDS011;26549;50.918;5.338;2022-12-07T16:04:47;21.92;;;4.10;;
40827;SDS011;26549;50.918;5.338;2022-12-07T16:07:13;5.65;;;2.80;;
40827;SDS011;26549;50.918;5.338;2022-12-07T16:09:41;2.50;;;2.17;;
40827;SDS011;26549;50.918;5.338;2022-12-07T16:12:07;3.92;;;2.00;;
40827;SDS011;26549;50.918;5.338;2022-12-07T16:14:33;2.67;;;2.20;;
40827;SDS011;26549;50.918;5.338;2022-12-07T16:16:59;4.53;;;1.67;;
40827;SDS011;26549;50.918;5.338;2022-12-07T16:19:24;1.98;;;1.77;;
40827;SDS011;26549;50.918;5.338;2022-12-07T16:21:53;2.22;;;1.58;;
40827;SDS011;26549;50.918;5.338;2022-12-07T16:24:18;3.20;;;2.05;;
40827;SDS011;26549;50.918;5.338;2022-12-07T16:26:44;5.55;;;2.42;;
40827;SDS011;26549;50.918;5.338;2022-12-07T16:29:11;3.65;;;2.28;;
40827;SDS011;26549;50.918;5.338;2022-12-07T16:31:37;7.57;;;2.03;;
40827;SDS011;26549;50.918;5.338;2022-12-07T16:34:03;3.05;;;2.25;;
40827;SDS011;26549;50.918;5.338;2022-12-07T16:36:29;2.90;;;2.60;;
40827;SDS011;26549;50.918;5.338;2022-12-07T16:38:58;6.65;;;2.72;;
40827;SDS011;26549;50.918;5.338;2022-12-07T16:41:28;5.53;;;2.28;;
40827;SDS011;26549;50.918;5.338;2022-12-07T16:44:05;5.35;;;2.22;;
40827;SDS011;26549;50.918;5.338;2022-12-07T16:46:33;5.10;;;2.83;;
40827;SDS011;26549;50.918;5.338;2022-12-07T16:49:00;6.55;;;2.45;;
40827;SDS011;26549;50.918;5.338;2022-12-07T16:51:27;3.25;;;2.30;;
40827;SDS011;26549;50.918;5.338;2022-12-07T16:53:53;3.63;;;2.22;;
40827;SDS011;26549;50.918;5.338;2022-12-07T16:56:19;4.35;;;2.28;;
40827;SDS011;26549;50.918;5.338;2022-12-07T16:58:45;3.20;;;2.17;;
40827;SDS011;26549;50.918;5.338;2022-12-07T17:01:17;3.97;;;3.10;;
40827;SDS011;26549;50.918;5.338;2022-12-07T17:03:45;4.57;;;3.00;;
40827;SDS011;26549;50.918;5.338;2022-12-07T17:06:15;7.93;;;3.38;;
40827;SDS011;26549;50.918;5.338;2022-12-07T17:08:42;6.68;;;2.40;;
40827;SDS011;26549;50.918;5.338;2022-12-07T17:11:09;6.72;;;2.95;;
40827;SDS011;26549;50.918;5.338;2022-12-07T17:13:41;3.45;;;2.88;;
40827;SDS011;26549;50.918;5.338;2022-12-07T17:16:26;4.60;;;3.28;;
40827;SDS011;26549;50.918;5.338;2022-12-07T17:18:51;5.95;;;3.78;;
40827;SDS011;26549;50.918;5.338;2022-12-07T17:21:17;5.95;;;3.30;;